sensor_id;sensor_type;location;lat;lon;timestamp;temperature;humidity
53432;DHT22;39329;44.754;19.680;2022-10-04T00:01:10;11.80;99.90
53432;DHT22;39329;44.754;19.680;2022-10-04T00:06:02;11.80;99.90
53432;DHT22;39329;44.754;19.680;2022-10-04T00:08:31;11.90;99.90
53432;DHT22;39329;44.754;19.680;2022-10-04T00:11:04;11.80;99.90
53432;DHT22;39329;44.754;19.680;2022-10-04T00:13:30;11.70;99.90
53432;DHT22;39329;44.754;19.680;2022-10-04T00:33:02;11.60;99.90
53432;DHT22;39329;44.754;19.680;2022-10-04T00:38:01;11.40;99.90
53432;DHT22;39329;44.754;19.680;2022-10-04T00:40:40;11.30;99.90
53432;DHT22;39329;44.754;19.680;2022-10-04T00:45:44;11.30;99.90
53432;DHT22;39329;44.754;19.680;2022-10-04T00:48:17;11.20;99.90
53432;DHT22;39329;44.754;19.680;2022-10-04T00:50:50;11.20;99.90
53432;DHT22;39329;44.754;19.680;2022-10-04T00:53:38;11.20;99.90
53432;DHT22;39329;44.754;19.680;2022-10-04T00:56:06;11.20;99.90
53432;DHT22;39329;44.754;19.680;2022-10-04T00:58:44;11.10;99.90
53432;DHT22;39329;44.754;19.680;2022-10-04T01:01:11;11.10;99.90
53432;DHT22;39329;44.754;19.680;2022-10-04T01:03:38;11.10;99.90
53432;DHT22;39329;44.754;19.680;2022-10-04T01:06:05;11.10;99.90
53432;DHT22;39329;44.754;19.680;2022-10-04T01:08:39;11.10;99.90
53432;DHT22;39329;44.754;19.680;2022-10-04T01:11:17;11.10;99.90
53432;DHT22;39329;44.754;19.680;2022-10-04T01:13:45;11.00;99.90
53432;DHT22;39329;44.754;19.680;2022-10-04T01:18:38;10.90;99.90
53432;DHT22;39329;44.754;19.680;2022-10-04T01:21:26;10.90;99.90
53432;DHT22;39329;44.754;19.680;2022-10-04T01:23:52;10.80;99.90
53432;DHT22;39329;44.754;19.680;2022-10-04T01:29:06;10.80;99.90
53432;DHT22;39329;44.754;19.680;2022-10-04T01:31:33;10.80;99.90
53432;DHT22;39329;44.754;19.680;2022-10-04T01:34:00;10.80;99.90
53432;DHT22;39329;44.754;19.680;2022-10-04T01:36:26;10.80;99.90
53432;DHT22;39329;44.754;19.680;2022-10-04T01:38:54;10.70;99.90
53432;DHT22;39329;44.754;19.680;2022-10-04T01:41:22;10.70;99.90
53432;DHT22;39329;44.754;19.680;2022-10-04T01:43:50;10.70;99.90
53432;DHT22;39329;44.754;19.680;2022-10-04T01:46:28;10.70;99.90
53432;DHT22;39329;44.754;19.680;2022-10-04T01:48:55;10.60;99.90
53432;DHT22;39329;44.754;19.680;2022-10-04T01:51:26;10.60;99.90
53432;DHT22;39329;44.754;19.680;2022-10-04T01:54:10;10.70;99.90
53432;DHT22;39329;44.754;19.680;2022-10-04T01:56:39;10.60;99.90
53432;DHT22;39329;44.754;19.680;2022-10-04T01:59:07;10.60;99.90
53432;DHT22;39329;44.754;19.680;2022-10-04T02:01:39;10.60;99.90
53432;DHT22;39329;44.754;19.680;2022-10-04T02:06:37;10.60;99.90
53432;DHT22;39329;44.754;19.680;2022-10-04T02:09:09;10.60;99.90
53432;DHT22;39329;44.754;19.680;2022-10-04T02:11:36;10.50;99.90
53432;DHT22;39329;44.754;19.680;2022-10-04T02:14:03;10.50;99.90
53432;DHT22;39329;44.754;19.680;2022-10-04T02:16:30;10.50;99.90
53432;DHT22;39329;44.754;19.680;2022-10-04T02:18:59;10.50;99.90
53432;DHT22;39329;44.754;19.680;2022-10-04T02:21:27;10.40;99.90
53432;DHT22;39329;44.754;19.680;2022-10-04T02:23:53;10.40;99.90
53432;DHT22;39329;44.754;19.680;2022-10-04T02:26:19;10.40;99.90
53432;DHT22;39329;44.754;19.680;2022-10-04T02:28:45;10.40;99.90
53432;DHT22;39329;44.754;19.680;2022-10-04T02:31:12;10.40;99.90
53432;DHT22;39329;44.754;19.680;2022-10-04T02:33:57;10.40;99.90
53432;DHT22;39329;44.754;19.680;2022-10-04T02:36:24;10.40;99.90
53432;DHT22;39329;44.754;19.680;2022-10-04T02:41:29;10.40;99.90
53432;DHT22;39329;44.754;19.680;2022-10-04T02:49:25;10.30;99.90
53432;DHT22;39329;44.754;19.680;2022-10-04T02:51:53;10.30;99.90
53432;DHT22;39329;44.754;19.680;2022-10-04T02:54:27;10.30;99.90
53432;DHT22;39329;44.754;19.680;2022-10-04T02:56:57;10.30;99.90
53432;DHT22;39329;44.754;19.680;2022-10-04T02:59:23;10.30;99.90
53432;DHT22;39329;44.754;19.680;2022-10-04T03:01:53;10.30;99.90
53432;DHT22;39329;44.754;19.680;2022-10-04T03:04:21;10.30;99.90
53432;DHT22;39329;44.754;19.680;2022-10-04T03:06:48;10.30;99.90
53432;DHT22;39329;44.754;19.680;2022-10-04T03:09:14;10.30;99.90
53432;DHT22;39329;44.754;19.680;2022-10-04T03:11:41;10.30;99.90
53432;DHT22;39329;44.754;19.680;2022-10-04T03:14:08;10.30;99.90
53432;DHT22;39329;44.754;19.680;2022-10-04T03:16:36;10.40;99.90
53432;DHT22;39329;44.754;19.680;2022-10-04T03:19:03;10.40;99.90
53432;DHT22;39329;44.754;19.680;2022-10-04T03:21:31;10.30;99.90
53432;DHT22;39329;44.754;19.680;2022-10-04T03:23:57;10.20;99.90
53432;DHT22;39329;44.754;19.680;2022-10-04T03:26:27;10.30;99.90
53432;DHT22;39329;44.754;19.680;2022-10-04T03:28:53;10.40;99.90
53432;DHT22;39329;44.754;19.680;2022-10-04T03:31:19;10.40;99.90
53432;DHT22;39329;44.754;19.680;2022-10-04T03:33:45;10.30;99.90
53432;DHT22;39329;44.754;19.680;2022-10-04T03:36:12;10.30;99.90
53432;DHT22;39329;44.754;19.680;2022-10-04T03:38:38;10.30;99.90
53432;DHT22;39329;44.754;19.680;2022-10-04T03:41:04;10.20;99.90
53432;DHT22;39329;44.754;19.680;2022-10-04T03:43:31;10.40;99.90
53432;DHT22;39329;44.754;19.680;2022-10-04T03:46:01;10.10;99.90
53432;DHT22;39329;44.754;19.680;2022-10-04T03:48:42;10.10;99.90
53432;DHT22;39329;44.754;19.680;2022-10-04T03:51:15;10.10;99.90
53432;DHT22;39329;44.754;19.680;2022-10-04T03:53:43;10.10;99.90
53432;DHT22;39329;44.754;19.680;2022-10-04T03:58:41;10.10;99.90
53432;DHT22;39329;44.754;19.680;2022-10-04T04:01:18;10.10;99.90
53432;DHT22;39329;44.754;19.680;2022-10-04T04:03:56;10.00;99.90
53432;DHT22;39329;44.754;19.680;2022-10-04T04:06:23;10.00;99.90
53432;DHT22;39329;44.754;19.680;2022-10-04T04:08:52;10.00;99.90
53432;DHT22;39329;44.754;19.680;2022-10-04T04:11:25;10.00;99.90
53432;DHT22;39329;44.754;19.680;2022-10-04T04:13:59;10.00;99.90
53432;DHT22;39329;44.754;19.680;2022-10-04T04:16:27;10.00;99.90
53432;DHT22;39329;44.754;19.680;2022-10-04T04:18:53;9.90;99.90
53432;DHT22;39329;44.754;19.680;2022-10-04T04:21:19;9.90;99.90
53432;DHT22;39329;44.754;19.680;2022-10-04T04:31:24;9.90;99.90
53432;DHT22;39329;44.754;19.680;2022-10-04T04:34:01;9.80;99.90
53432;DHT22;39329;44.754;19.680;2022-10-04T04:36:27;9.80;99.90
53432;DHT22;39329;44.754;19.680;2022-10-04T04:39:04;9.90;99.90
53432;DHT22;39329;44.754;19.680;2022-10-04T04:41:48;9.90;99.90
53432;DHT22;39329;44.754;19.680;2022-10-04T04:44:17;9.90;99.90
53432;DHT22;39329;44.754;19.680;2022-10-04T04:46:46;9.80;99.90
53432;DHT22;39329;44.754;19.680;2022-10-04T04:49:14;9.90;99.90
53432;DHT22;39329;44.754;19.680;2022-10-04T04:51:40;9.90;99.90
53432;DHT22;39329;44.754;19.680;2022-10-04T04:54:10;9.90;99.90
53432;DHT22;39329;44.754;19.680;2022-10-04T04:56:35;9.90;99.90
53432;DHT22;39329;44.754;19.680;2022-10-04T04:59:02;9.90;99.90
53432;DHT22;39329;44.754;19.680;2022-10-04T05:01:30;10.00;99.90
53432;DHT22;39329;44.754;19.680;2022-10-04T05:06:29;10.10;99.90
53432;DHT22;39329;44.754;19.680;2022-10-04T05:08:55;10.20;99.90
53432;DHT22;39329;44.754;19.680;2022-10-04T05:11:21;10.20;99.90
53432;DHT22;39329;44.754;19.680;2022-10-04T05:13:50;10.20;99.90
53432;DHT22;39329;44.754;19.680;2022-10-04T05:16:27;10.30;99.90
53432;DHT22;39329;44.754;19.680;2022-10-04T05:19:01;11.60;99.90
53432;DHT22;39329;44.754;19.680;2022-10-04T05:21:29;13.60;99.90
53432;DHT22;39329;44.754;19.680;2022-10-04T05:23:55;16.00;99.90
53432;DHT22;39329;44.754;19.680;2022-10-04T05:26:26;16.60;99.90
53432;DHT22;39329;44.754;19.680;2022-10-04T05:28:53;19.50;99.90
53432;DHT22;39329;44.754;19.680;2022-10-04T05:33:49;19.70;99.90
53432;DHT22;39329;44.754;19.680;2022-10-04T05:39:03;21.50;99.90
53432;DHT22;39329;44.754;19.680;2022-10-04T05:41:36;21.80;99.90
53432;DHT22;39329;44.754;19.680;2022-10-04T05:48:59;23.40;98.00
53432;DHT22;39329;44.754;19.680;2022-10-04T05:51:27;23.60;97.30
53432;DHT22;39329;44.754;19.680;2022-10-04T05:53:53;24.00;96.20
53432;DHT22;39329;44.754;19.680;2022-10-04T06:01:17;25.10;94.20
53432;DHT22;39329;44.754;19.680;2022-10-04T06:19:08;26.60;88.80
53432;DHT22;39329;44.754;19.680;2022-10-04T06:24:07;27.10;86.40
53432;DHT22;39329;44.754;19.680;2022-10-04T06:26:42;27.50;85.20
53432;DHT22;39329;44.754;19.680;2022-10-04T06:29:15;27.80;85.60
53432;DHT22;39329;44.754;19.680;2022-10-04T06:39:30;28.50;83.50
53432;DHT22;39329;44.754;19.680;2022-10-04T06:42:15;28.40;83.80
53432;DHT22;39329;44.754;19.680;2022-10-04T06:50:12;29.10;81.30
53432;DHT22;39329;44.754;19.680;2022-10-04T07:03:36;29.40;80.90
53432;DHT22;39329;44.754;19.680;2022-10-04T07:06:03;29.80;79.40
53432;DHT22;39329;44.754;19.680;2022-10-04T07:11:21;29.70;79.40
53432;DHT22;39329;44.754;19.680;2022-10-04T07:21:09;30.60;79.40
53432;DHT22;39329;44.754;19.680;2022-10-04T07:23:40;30.50;79.20
53432;DHT22;39329;44.754;19.680;2022-10-04T07:26:16;30.20;78.30
53432;DHT22;39329;44.754;19.680;2022-10-04T07:28:44;30.00;77.10
53432;DHT22;39329;44.754;19.680;2022-10-04T07:31:30;30.70;78.40
53432;DHT22;39329;44.754;19.680;2022-10-04T07:33:58;30.70;77.80
53432;DHT22;39329;44.754;19.680;2022-10-04T07:36:26;30.60;78.20
53432;DHT22;39329;44.754;19.680;2022-10-04T07:38:57;30.60;78.40
53432;DHT22;39329;44.754;19.680;2022-10-04T07:43:51;29.40;77.30
53432;DHT22;39329;44.754;19.680;2022-10-04T07:49:10;27.10;80.20
53432;DHT22;39329;44.754;19.680;2022-10-04T07:54:22;25.40;84.50
53432;DHT22;39329;44.754;19.680;2022-10-04T07:57:00;24.50;85.20
53432;DHT22;39329;44.754;19.680;2022-10-04T07:59:38;24.30;87.00
53432;DHT22;39329;44.754;19.680;2022-10-04T08:09:55;21.70;90.40
53432;DHT22;39329;44.754;19.680;2022-10-04T08:14:55;21.70;91.90
53432;DHT22;39329;44.754;19.680;2022-10-04T08:17:40;21.80;92.30
53432;DHT22;39329;44.754;19.680;2022-10-04T08:25:19;21.60;92.60
53432;DHT22;39329;44.754;19.680;2022-10-04T08:33:14;21.10;93.30
53432;DHT22;39329;44.754;19.680;2022-10-04T08:35:47;21.40;94.00
53432;DHT22;39329;44.754;19.680;2022-10-04T08:56:17;21.40;92.60
53432;DHT22;39329;44.754;19.680;2022-10-04T08:58:54;21.50;94.80
53432;DHT22;39329;44.754;19.680;2022-10-04T09:01:50;21.80;93.80
53432;DHT22;39329;44.754;19.680;2022-10-04T09:07:02;20.80;93.90
53432;DHT22;39329;44.754;19.680;2022-10-04T09:17:20;21.60;96.80
53432;DHT22;39329;44.754;19.680;2022-10-04T09:22:15;21.20;95.20
53432;DHT22;39329;44.754;19.680;2022-10-04T09:27:14;21.40;95.50
53432;DHT22;39329;44.754;19.680;2022-10-04T09:32:25;21.60;95.40
53432;DHT22;39329;44.754;19.680;2022-10-04T09:47:45;21.20;95.30
53432;DHT22;39329;44.754;19.680;2022-10-04T09:53:04;21.70;96.00
53432;DHT22;39329;44.754;19.680;2022-10-04T09:55:48;22.30;95.60
53432;DHT22;39329;44.754;19.680;2022-10-04T10:00:59;21.90;94.80
53432;DHT22;39329;44.754;19.680;2022-10-04T10:03:35;22.00;95.80
53432;DHT22;39329;44.754;19.680;2022-10-04T10:11:56;22.30;94.40
53432;DHT22;39329;44.754;19.680;2022-10-04T10:25:16;21.60;93.80
53432;DHT22;39329;44.754;19.680;2022-10-04T10:33:25;21.80;95.00
53432;DHT22;39329;44.754;19.680;2022-10-04T10:38:28;21.30;94.70
53432;DHT22;39329;44.754;19.680;2022-10-04T11:05:08;20.20;95.30
53432;DHT22;39329;44.754;19.680;2022-10-04T11:07:52;20.10;95.70
53432;DHT22;39329;44.754;19.680;2022-10-04T11:26:27;20.90;94.90
53432;DHT22;39329;44.754;19.680;2022-10-04T11:31:35;20.70;96.30
53432;DHT22;39329;44.754;19.680;2022-10-04T11:41:55;21.00;95.40
53432;DHT22;39329;44.754;19.680;2022-10-04T12:15:18;20.60;95.90
53432;DHT22;39329;44.754;19.680;2022-10-04T12:18:05;20.60;95.70
53432;DHT22;39329;44.754;19.680;2022-10-04T12:25:56;20.20;96.70
53432;DHT22;39329;44.754;19.680;2022-10-04T12:28:29;20.10;96.70
53432;DHT22;39329;44.754;19.680;2022-10-04T12:33:32;19.90;96.20
53432;DHT22;39329;44.754;19.680;2022-10-04T13:08:53;20.00;96.50
53432;DHT22;39329;44.754;19.680;2022-10-04T13:24:49;19.80;98.40
53432;DHT22;39329;44.754;19.680;2022-10-04T13:30:12;19.40;98.40
53432;DHT22;39329;44.754;19.680;2022-10-04T13:32:41;19.20;98.20
53432;DHT22;39329;44.754;19.680;2022-10-04T13:35:21;19.30;98.30
53432;DHT22;39329;44.754;19.680;2022-10-04T13:40:35;19.50;98.00
53432;DHT22;39329;44.754;19.680;2022-10-04T13:43:11;19.60;99.10
53432;DHT22;39329;44.754;19.680;2022-10-04T13:45:42;19.80;98.80
53432;DHT22;39329;44.754;19.680;2022-10-04T13:48:25;20.00;99.10
53432;DHT22;39329;44.754;19.680;2022-10-04T13:53:33;19.80;98.80
53432;DHT22;39329;44.754;19.680;2022-10-04T14:01:57;19.50;99.50
53432;DHT22;39329;44.754;19.680;2022-10-04T14:22:35;19.00;99.80
53432;DHT22;39329;44.754;19.680;2022-10-04T14:25:23;19.00;99.90
53432;DHT22;39329;44.754;19.680;2022-10-04T14:36:52;18.70;99.90
53432;DHT22;39329;44.754;19.680;2022-10-04T14:56:43;18.00;99.90
53432;DHT22;39329;44.754;19.680;2022-10-04T15:01:43;17.60;99.90
53432;DHT22;39329;44.754;19.680;2022-10-04T15:04:28;17.50;99.90
53432;DHT22;39329;44.754;19.680;2022-10-04T15:07:16;17.30;99.90
53432;DHT22;39329;44.754;19.680;2022-10-04T17:02:21;16.30;99.90
53432;DHT22;39329;44.754;19.680;2022-10-04T17:07:28;15.80;99.90
53432;DHT22;39329;44.754;19.680;2022-10-04T17:19:55;15.90;99.90
53432;DHT22;39329;44.754;19.680;2022-10-04T17:24:55;15.80;99.90
53432;DHT22;39329;44.754;19.680;2022-10-04T17:39:53;15.80;99.90
53432;DHT22;39329;44.754;19.680;2022-10-04T17:47:41;15.70;99.90
53432;DHT22;39329;44.754;19.680;2022-10-04T17:50:28;15.70;99.90
53432;DHT22;39329;44.754;19.680;2022-10-04T17:53:19;15.70;99.90
53432;DHT22;39329;44.754;19.680;2022-10-04T17:56:06;15.60;99.90
53432;DHT22;39329;44.754;19.680;2022-10-04T17:58:39;15.70;99.90
53432;DHT22;39329;44.754;19.680;2022-10-04T18:01:25;15.70;99.90
53432;DHT22;39329;44.754;19.680;2022-10-04T18:04:04;15.50;99.90
53432;DHT22;39329;44.754;19.680;2022-10-04T18:06:41;15.60;99.90
53432;DHT22;39329;44.754;19.680;2022-10-04T18:09:09;15.40;99.90
53432;DHT22;39329;44.754;19.680;2022-10-04T18:16:46;15.40;99.90
53432;DHT22;39329;44.754;19.680;2022-10-04T18:24:26;15.10;99.90
53432;DHT22;39329;44.754;19.680;2022-10-04T18:26:53;15.00;99.90
53432;DHT22;39329;44.754;19.680;2022-10-04T18:29:36;15.00;99.90
53432;DHT22;39329;44.754;19.680;2022-10-04T18:34:52;14.90;99.90
53432;DHT22;39329;44.754;19.680;2022-10-04T18:40:12;15.00;99.90
53432;DHT22;39329;44.754;19.680;2022-10-04T18:42:40;14.90;99.90
53432;DHT22;39329;44.754;19.680;2022-10-04T18:45:25;14.90;99.90
53432;DHT22;39329;44.754;19.680;2022-10-04T18:47:51;14.90;99.90
53432;DHT22;39329;44.754;19.680;2022-10-04T18:50:30;14.90;99.90
53432;DHT22;39329;44.754;19.680;2022-10-04T18:53:12;14.90;99.90
53432;DHT22;39329;44.754;19.680;2022-10-04T19:01:36;14.80;99.90
53432;DHT22;39329;44.754;19.680;2022-10-04T19:04:29;14.80;99.90
53432;DHT22;39329;44.754;19.680;2022-10-04T19:07:03;14.80;99.90
53432;DHT22;39329;44.754;19.680;2022-10-04T19:12:03;14.70;99.90
53432;DHT22;39329;44.754;19.680;2022-10-04T19:14:47;14.70;99.90
53432;DHT22;39329;44.754;19.680;2022-10-04T19:17:37;14.60;99.90
53432;DHT22;39329;44.754;19.680;2022-10-04T19:20:09;14.60;99.90
53432;DHT22;39329;44.754;19.680;2022-10-04T19:22:39;14.50;99.90
53432;DHT22;39329;44.754;19.680;2022-10-04T19:25:20;14.50;99.90
53432;DHT22;39329;44.754;19.680;2022-10-04T19:27:48;14.50;99.90
53432;DHT22;39329;44.754;19.680;2022-10-04T19:32:50;14.40;99.90
53432;DHT22;39329;44.754;19.680;2022-10-04T19:35:33;14.40;99.90
53432;DHT22;39329;44.754;19.680;2022-10-04T19:40:51;14.40;99.90
53432;DHT22;39329;44.754;19.680;2022-10-04T19:48:35;14.20;99.90
53432;DHT22;39329;44.754;19.680;2022-10-04T19:51:08;14.20;99.90
53432;DHT22;39329;44.754;19.680;2022-10-04T19:56:02;14.20;99.90
53432;DHT22;39329;44.754;19.680;2022-10-04T20:00:58;13.90;99.90
53432;DHT22;39329;44.754;19.680;2022-10-04T20:03:24;13.90;99.90
53432;DHT22;39329;44.754;19.680;2022-10-04T20:05:51;13.90;99.90
53432;DHT22;39329;44.754;19.680;2022-10-04T20:10:46;14.50;99.90
53432;DHT22;39329;44.754;19.680;2022-10-04T20:15:49;13.90;99.90
53432;DHT22;39329;44.754;19.680;2022-10-04T20:26:09;13.60;99.90
53432;DHT22;39329;44.754;19.680;2022-10-04T20:28:36;13.60;99.90
53432;DHT22;39329;44.754;19.680;2022-10-04T20:44:12;13.30;99.90
53432;DHT22;39329;44.754;19.680;2022-10-04T20:46:58;13.20;99.90
53432;DHT22;39329;44.754;19.680;2022-10-04T20:49:23;13.10;99.90
53432;DHT22;39329;44.754;19.680;2022-10-04T20:51:49;13.10;99.90
53432;DHT22;39329;44.754;19.680;2022-10-04T20:54:18;13.10;99.90
53432;DHT22;39329;44.754;19.680;2022-10-04T20:56:45;13.00;99.90
53432;DHT22;39329;44.754;19.680;2022-10-04T20:59:12;13.00;99.90
53432;DHT22;39329;44.754;19.680;2022-10-04T21:01:38;13.00;99.90
53432;DHT22;39329;44.754;19.680;2022-10-04T21:04:24;13.00;99.90
53432;DHT22;39329;44.754;19.680;2022-10-04T21:07:22;12.90;99.90
53432;DHT22;39329;44.754;19.680;2022-10-04T21:09:48;12.90;99.90
53432;DHT22;39329;44.754;19.680;2022-10-04T21:19:55;12.80;99.90
53432;DHT22;39329;44.754;19.680;2022-10-04T21:27:27;12.70;99.90
53432;DHT22;39329;44.754;19.680;2022-10-04T21:29:53;12.70;99.90
53432;DHT22;39329;44.754;19.680;2022-10-04T21:32:21;12.60;99.90
53432;DHT22;39329;44.754;19.680;2022-10-04T21:34:47;12.60;99.90
53432;DHT22;39329;44.754;19.680;2022-10-04T21:37:13;12.60;99.90
53432;DHT22;39329;44.754;19.680;2022-10-04T21:39:39;12.60;99.90
53432;DHT22;39329;44.754;19.680;2022-10-04T21:42:04;12.50;99.90
53432;DHT22;39329;44.754;19.680;2022-10-04T21:44:30;12.50;99.90
53432;DHT22;39329;44.754;19.680;2022-10-04T21:46:55;12.40;99.90
53432;DHT22;39329;44.754;19.680;2022-10-04T21:49:21;12.40;99.90
53432;DHT22;39329;44.754;19.680;2022-10-04T21:51:46;12.40;99.90
53432;DHT22;39329;44.754;19.680;2022-10-04T21:54:12;12.50;99.90
53432;DHT22;39329;44.754;19.680;2022-10-04T21:56:37;11.70;99.90
53432;DHT22;39329;44.754;19.680;2022-10-04T21:59:03;12.30;99.90
53432;DHT22;39329;44.754;19.680;2022-10-04T22:01:29;12.30;99.90
53432;DHT22;39329;44.754;19.680;2022-10-04T22:03:54;12.30;99.90
53432;DHT22;39329;44.754;19.680;2022-10-04T22:06:20;12.30;99.90
53432;DHT22;39329;44.754;19.680;2022-10-04T22:08:45;12.20;99.90
53432;DHT22;39329;44.754;19.680;2022-10-04T22:11:11;12.20;99.90
53432;DHT22;39329;44.754;19.680;2022-10-04T22:13:37;12.20;99.90
53432;DHT22;39329;44.754;19.680;2022-10-04T22:16:03;12.20;99.90
53432;DHT22;39329;44.754;19.680;2022-10-04T22:18:29;12.10;99.90
53432;DHT22;39329;44.754;19.680;2022-10-04T22:20:54;12.10;99.90
53432;DHT22;39329;44.754;19.680;2022-10-04T22:23:21;12.10;99.90
53432;DHT22;39329;44.754;19.680;2022-10-04T22:25:47;12.20;99.90
53432;DHT22;39329;44.754;19.680;2022-10-04T22:28:28;12.00;99.90
53432;DHT22;39329;44.754;19.680;2022-10-04T22:30:54;12.00;99.90
53432;DHT22;39329;44.754;19.680;2022-10-04T22:33:36;12.10;99.90
53432;DHT22;39329;44.754;19.680;2022-10-04T22:38:40;12.00;99.90
53432;DHT22;39329;44.754;19.680;2022-10-04T22:41:13;12.00;99.90
53432;DHT22;39329;44.754;19.680;2022-10-04T22:43:38;11.80;99.90
53432;DHT22;39329;44.754;19.680;2022-10-04T22:46:04;11.90;99.90
53432;DHT22;39329;44.754;19.680;2022-10-04T22:48:30;11.90;99.90
53432;DHT22;39329;44.754;19.680;2022-10-04T22:50:56;11.80;99.90
53432;DHT22;39329;44.754;19.680;2022-10-04T22:53:21;11.80;99.90
53432;DHT22;39329;44.754;19.680;2022-10-04T22:55:47;11.80;99.90
53432;DHT22;39329;44.754;19.680;2022-10-04T22:58:13;11.80;99.90
53432;DHT22;39329;44.754;19.680;2022-10-04T23:00:39;11.70;99.90
53432;DHT22;39329;44.754;19.680;2022-10-04T23:03:26;11.90;99.90
53432;DHT22;39329;44.754;19.680;2022-10-04T23:08:55;11.80;99.90
53432;DHT22;39329;44.754;19.680;2022-10-04T23:11:20;11.80;99.90
53432;DHT22;39329;44.754;19.680;2022-10-04T23:13:46;11.80;99.90
53432;DHT22;39329;44.754;19.680;2022-10-04T23:16:13;11.80;99.90
53432;DHT22;39329;44.754;19.680;2022-10-04T23:18:39;11.70;99.90
53432;DHT22;39329;44.754;19.680;2022-10-04T23:21:09;11.70;99.90
53432;DHT22;39329;44.754;19.680;2022-10-04T23:23:38;11.60;99.90
53432;DHT22;39329;44.754;19.680;2022-10-04T23:26:10;11.60;99.90
53432;DHT22;39329;44.754;19.680;2022-10-04T23:28:36;11.60;99.90
53432;DHT22;39329;44.754;19.680;2022-10-04T23:31:04;11.50;99.90
53432;DHT22;39329;44.754;19.680;2022-10-04T23:33:32;11.60;99.90
53432;DHT22;39329;44.754;19.680;2022-10-04T23:35:58;11.50;99.90
53432;DHT22;39329;44.754;19.680;2022-10-04T23:38:24;11.50;99.90
53432;DHT22;39329;44.754;19.680;2022-10-04T23:40:49;11.40;99.90
53432;DHT22;39329;44.754;19.680;2022-10-04T23:43:17;11.50;99.90
53432;DHT22;39329;44.754;19.680;2022-10-04T23:45:44;11.50;99.90
53432;DHT22;39329;44.754;19.680;2022-10-04T23:48:10;11.40;99.90
53432;DHT22;39329;44.754;19.680;2022-10-04T23:50:37;11.40;99.90
53432;DHT22;39329;44.754;19.680;2022-10-04T23:53:04;11.40;99.90
53432;DHT22;39329;44.754;19.680;2022-10-04T23:55:40;11.40;99.90
53432;DHT22;39329;44.754;19.680;2022-10-04T23:58:13;11.30;99.90
